SFO weather

San Francisco International Airport
San Francisco, California, United States

Public forecast

Using degrees Fahrenheit for public forecast. Weather courtesy of forecast.io.

METAR (pilot weather report)

Retrieved 2017/01/20 04:56 UTC (42 minutes ago):

KSFO 200456Z 18011KT 10SM FEW024 OVC095 12/07 A2977

TAF (pilot weather forecast)

Forecast is more than 12 hours old.

Retrieved 2017/01/19 00:39 UTC (1 day ago):

TAF KSFO 192333Z 2000/2106 24012KT P6SM VCSH FEW025 BKN040 FM200300 20007KT P6SM VCSH BKN030 OVC050 FM200600 17007KT P6SM -RA BKN020 OVC050 FM200700 16012G18KT 5SM -RA BKN020 OVC035 FM201000 14023G31KT 5SM -RA OVC020 TEMPO 2012/2016 3SM RA OVC015 FM201600 23018G30KT 5SM -RA OVC015 FM202000 25023G32KT P6SM SHRA BKN020 OVC050 FM210200 25022G30KT P6SM -SHRA BKN015 OVC040